sensor_id;sensor_type;location;lat;lon;timestamp;P1;durP1;ratioP1;P2;durP2;ratioP2
13002;SDS011;66869;57.706;11.922;2023-04-01T00:00:44;0.10;;;0.10;;
13002;SDS011;66869;57.706;11.922;2023-04-01T00:03:09;0.20;;;0.10;;
13002;SDS011;66869;57.706;11.922;2023-04-01T00:05:34;0.20;;;0.20;;
13002;SDS011;66869;57.706;11.922;2023-04-01T00:08:00;0.20;;;0.20;;
13002;SDS011;66869;57.706;11.922;2023-04-01T00:10:25;0.20;;;0.20;;
13002;SDS011;66869;57.706;11.922;2023-04-01T00:12:51;4.85;;;0.28;;
13002;SDS011;66869;57.706;11.922;2023-04-01T00:15:16;0.15;;;0.15;;
13002;SDS011;66869;57.706;11.922;2023-04-01T00:17:41;0.20;;;0.13;;
13002;SDS011;66869;57.706;11.922;2023-04-01T00:20:07;0.20;;;0.20;;
13002;SDS011;66869;57.706;11.922;2023-04-01T00:22:32;0.40;;;0.13;;
13002;SDS011;66869;57.706;11.922;2023-04-01T00:24:58;0.13;;;0.10;;
13002;SDS011;66869;57.706;11.922;2023-04-01T00:27:24;0.13;;;0.10;;
13002;SDS011;66869;57.706;11.922;2023-04-01T00:29:49;0.10;;;0.10;;
13002;SDS011;66869;57.706;11.922;2023-04-01T00:32:15;0.20;;;0.20;;
13002;SDS011;66869;57.706;11.922;2023-04-01T00:34:40;0.13;;;0.13;;
13002;SDS011;66869;57.706;11.922;2023-04-01T00:37:06;0.08;;;0.08;;
13002;SDS011;66869;57.706;11.922;2023-04-01T00:39:32;0.10;;;0.10;;
13002;SDS011;66869;57.706;11.922;2023-04-01T00:41:58;1.25;;;0.10;;
13002;SDS011;66869;57.706;11.922;2023-04-01T00:44:24;0.20;;;0.13;;
13002;SDS011;66869;57.706;11.922;2023-04-01T00:46:49;0.10;;;0.10;;
13002;SDS011;66869;57.706;11.922;2023-04-01T00:49:15;0.20;;;0.10;;
13002;SDS011;66869;57.706;11.922;2023-04-01T00:51:42;0.57;;;0.30;;
13002;SDS011;66869;57.706;11.922;2023-04-01T00:54:09;0.10;;;0.10;;
13002;SDS011;66869;57.706;11.922;2023-04-01T00:56:35;0.10;;;0.10;;
13002;SDS011;66869;57.706;11.922;2023-04-01T00:59:03;0.10;;;0.10;;
13002;SDS011;66869;57.706;11.922;2023-04-01T01:01:30;0.60;;;0.25;;
13002;SDS011;66869;57.706;11.922;2023-04-01T01:03:56;0.10;;;0.10;;
13002;SDS011;66869;57.706;11.922;2023-04-01T01:09:19;0.10;;;0.10;;
13002;SDS011;66869;57.706;11.922;2023-04-01T01:11:50;0.10;;;0.10;;
13002;SDS011;66869;57.706;11.922;2023-04-01T01:14:24;1.80;;;0.50;;
13002;SDS011;66869;57.706;11.922;2023-04-01T01:16:58;0.90;;;0.10;;
13002;SDS011;66869;57.706;11.922;2023-04-01T01:27:10;2.03;;;0.20;;
13002;SDS011;66869;57.706;11.922;2023-04-01T01:29:41;0.20;;;0.20;;
13002;SDS011;66869;57.706;11.922;2023-04-01T01:32:23;0.90;;;0.10;;
13002;SDS011;66869;57.706;11.922;2023-04-01T01:37:20;1.88;;;0.22;;
13002;SDS011;66869;57.706;11.922;2023-04-01T01:39:47;0.20;;;0.20;;
13002;SDS011;66869;57.706;11.922;2023-04-01T01:42:15;1.40;;;0.10;;
13002;SDS011;66869;57.706;11.922;2023-04-01T01:44:41;0.20;;;0.10;;
13002;SDS011;66869;57.706;11.922;2023-04-01T01:47:08;0.20;;;0.10;;
13002;SDS011;66869;57.706;11.922;2023-04-01T01:49:34;0.30;;;0.20;;
13002;SDS011;66869;57.706;11.922;2023-04-01T01:52:01;0.20;;;0.20;;
13002;SDS011;66869;57.706;11.922;2023-04-01T01:54:26;0.20;;;0.20;;
13002;SDS011;66869;57.706;11.922;2023-04-01T01:56:52;0.65;;;0.10;;
13002;SDS011;66869;57.706;11.922;2023-04-01T01:59:20;0.77;;;0.30;;
13002;SDS011;66869;57.706;11.922;2023-04-01T02:01:48;0.20;;;0.20;;
13002;SDS011;66869;57.706;11.922;2023-04-01T02:04:14;0.57;;;0.30;;
13002;SDS011;66869;57.706;11.922;2023-04-01T02:06:41;0.40;;;0.20;;
13002;SDS011;66869;57.706;11.922;2023-04-01T02:09:09;0.20;;;0.20;;
13002;SDS011;66869;57.706;11.922;2023-04-01T02:16:39;0.10;;;0.10;;
13002;SDS011;66869;57.706;11.922;2023-04-01T02:19:06;0.20;;;0.20;;
13002;SDS011;66869;57.706;11.922;2023-04-01T02:21:32;0.10;;;0.10;;
13002;SDS011;66869;57.706;11.922;2023-04-01T02:23:58;0.10;;;0.10;;
13002;SDS011;66869;57.706;11.922;2023-04-01T02:26:25;0.10;;;0.10;;
13002;SDS011;66869;57.706;11.922;2023-04-01T02:28:52;0.20;;;0.10;;
13002;SDS011;66869;57.706;11.922;2023-04-01T02:31:17;0.30;;;0.10;;
13002;SDS011;66869;57.706;11.922;2023-04-01T02:33:43;0.80;;;0.10;;
13002;SDS011;66869;57.706;11.922;2023-04-01T02:36:15;0.75;;;0.10;;
13002;SDS011;66869;57.706;11.922;2023-04-01T02:38:41;0.30;;;0.17;;
13002;SDS011;66869;57.706;11.922;2023-04-01T02:41:07;0.22;;;0.20;;
13002;SDS011;66869;57.706;11.922;2023-04-01T02:43:32;0.50;;;0.10;;
13002;SDS011;66869;57.706;11.922;2023-04-01T02:45:58;0.10;;;0.10;;
13002;SDS011;66869;57.706;11.922;2023-04-01T02:48:23;0.30;;;0.10;;
13002;SDS011;66869;57.706;11.922;2023-04-01T02:50:48;0.35;;;0.20;;
13002;SDS011;66869;57.706;11.922;2023-04-01T02:53:14;0.20;;;0.20;;
13002;SDS011;66869;57.706;11.922;2023-04-01T02:55:39;0.10;;;0.10;;
13002;SDS011;66869;57.706;11.922;2023-04-01T02:58:05;0.05;;;0.05;;
13002;SDS011;66869;57.706;11.922;2023-04-01T03:00:30;0.35;;;0.10;;
13002;SDS011;66869;57.706;11.922;2023-04-01T03:02:56;0.90;;;0.20;;
13002;SDS011;66869;57.706;11.922;2023-04-01T03:05:21;0.20;;;0.20;;
13002;SDS011;66869;57.706;11.922;2023-04-01T03:07:47;0.15;;;0.15;;
13002;SDS011;66869;57.706;11.922;2023-04-01T03:10:12;0.25;;;0.20;;
13002;SDS011;66869;57.706;11.922;2023-04-01T03:12:38;0.20;;;0.20;;
13002;SDS011;66869;57.706;11.922;2023-04-01T03:15:03;0.00;;;0.00;;
13002;SDS011;66869;57.706;11.922;2023-04-01T03:17:28;0.35;;;0.10;;
13002;SDS011;66869;57.706;11.922;2023-04-01T03:19:54;0.20;;;0.10;;
13002;SDS011;66869;57.706;11.922;2023-04-01T03:22:19;0.13;;;0.13;;
13002;SDS011;66869;57.706;11.922;2023-04-01T03:24:46;0.28;;;0.20;;
13002;SDS011;66869;57.706;11.922;2023-04-01T03:27:12;0.17;;;0.17;;
13002;SDS011;66869;57.706;11.922;2023-04-01T03:29:37;0.17;;;0.17;;
13002;SDS011;66869;57.706;11.922;2023-04-01T03:32:02;0.60;;;0.20;;
13002;SDS011;66869;57.706;11.922;2023-04-01T03:34:27;0.10;;;0.10;;
13002;SDS011;66869;57.706;11.922;2023-04-01T03:36:53;0.28;;;0.20;;
13002;SDS011;66869;57.706;11.922;2023-04-01T03:39:18;0.63;;;0.30;;
13002;SDS011;66869;57.706;11.922;2023-04-01T03:41:44;0.20;;;0.20;;
13002;SDS011;66869;57.706;11.922;2023-04-01T03:44:09;0.10;;;0.10;;
13002;SDS011;66869;57.706;11.922;2023-04-01T03:46:34;0.20;;;0.20;;
13002;SDS011;66869;57.706;11.922;2023-04-01T03:49:00;0.20;;;0.20;;
13002;SDS011;66869;57.706;11.922;2023-04-01T03:51:25;0.13;;;0.13;;
13002;SDS011;66869;57.706;11.922;2023-04-01T03:53:50;0.10;;;0.10;;
13002;SDS011;66869;57.706;11.922;2023-04-01T03:56:16;0.10;;;0.10;;
13002;SDS011;66869;57.706;11.922;2023-04-01T03:58:41;0.10;;;0.10;;
13002;SDS011;66869;57.706;11.922;2023-04-01T04:01:17;0.30;;;0.10;;
13002;SDS011;66869;57.706;11.922;2023-04-01T04:03:43;0.10;;;0.10;;
13002;SDS011;66869;57.706;11.922;2023-04-01T04:06:12;0.10;;;0.10;;
13002;SDS011;66869;57.706;11.922;2023-04-01T04:08:38;0.10;;;0.10;;
13002;SDS011;66869;57.706;11.922;2023-04-01T04:11:03;0.10;;;0.10;;
13002;SDS011;66869;57.706;11.922;2023-04-01T04:13:28;0.10;;;0.10;;
13002;SDS011;66869;57.706;11.922;2023-04-01T04:15:54;0.57;;;0.10;;
13002;SDS011;66869;57.706;11.922;2023-04-01T04:18:19;0.10;;;0.10;;
13002;SDS011;66869;57.706;11.922;2023-04-01T04:20:45;0.10;;;0.10;;
13002;SDS011;66869;57.706;11.922;2023-04-01T04:23:12;0.20;;;0.20;;
13002;SDS011;66869;57.706;11.922;2023-04-01T04:25:37;0.10;;;0.10;;
13002;SDS011;66869;57.706;11.922;2023-04-01T04:28:02;0.00;;;0.00;;
13002;SDS011;66869;57.706;11.922;2023-04-01T04:30:28;0.17;;;0.17;;
13002;SDS011;66869;57.706;11.922;2023-04-01T04:32:53;0.10;;;0.10;;
13002;SDS011;66869;57.706;11.922;2023-04-01T04:35:18;0.10;;;0.10;;
13002;SDS011;66869;57.706;11.922;2023-04-01T04:37:43;0.10;;;0.10;;
13002;SDS011;66869;57.706;11.922;2023-04-01T04:40:10;0.28;;;0.10;;
13002;SDS011;66869;57.706;11.922;2023-04-01T04:42:35;0.10;;;0.10;;
13002;SDS011;66869;57.706;11.922;2023-04-01T04:45:00;0.20;;;0.20;;
13002;SDS011;66869;57.706;11.922;2023-04-01T04:47:26;0.10;;;0.10;;
13002;SDS011;66869;57.706;11.922;2023-04-01T04:49:51;0.25;;;0.00;;
13002;SDS011;66869;57.706;11.922;2023-04-01T04:52:16;0.10;;;0.10;;
13002;SDS011;66869;57.706;11.922;2023-04-01T04:54:41;0.17;;;0.17;;
13002;SDS011;66869;57.706;11.922;2023-04-01T04:57:07;0.20;;;0.20;;
13002;SDS011;66869;57.706;11.922;2023-04-01T04:59:32;0.20;;;0.20;;
13002;SDS011;66869;57.706;11.922;2023-04-01T05:01:57;0.10;;;0.10;;
13002;SDS011;66869;57.706;11.922;2023-04-01T05:04:23;0.13;;;0.13;;
13002;SDS011;66869;57.706;11.922;2023-04-01T05:06:48;0.10;;;0.10;;
13002;SDS011;66869;57.706;11.922;2023-04-01T05:09:13;0.20;;;0.20;;
13002;SDS011;66869;57.706;11.922;2023-04-01T05:11:39;0.10;;;0.10;;
13002;SDS011;66869;57.706;11.922;2023-04-01T05:14:05;0.15;;;0.15;;
13002;SDS011;66869;57.706;11.922;2023-04-01T05:16:30;0.20;;;0.20;;
13002;SDS011;66869;57.706;11.922;2023-04-01T05:18:56;0.10;;;0.10;;
13002;SDS011;66869;57.706;11.922;2023-04-01T05:21:21;0.20;;;0.20;;
13002;SDS011;66869;57.706;11.922;2023-04-01T05:23:47;0.10;;;0.10;;
13002;SDS011;66869;57.706;11.922;2023-04-01T05:26:13;0.10;;;0.10;;
13002;SDS011;66869;57.706;11.922;2023-04-01T05:28:38;0.10;;;0.10;;
13002;SDS011;66869;57.706;11.922;2023-04-01T05:31:04;0.15;;;0.15;;
13002;SDS011;66869;57.706;11.922;2023-04-01T05:33:30;0.13;;;0.13;;
13002;SDS011;66869;57.706;11.922;2023-04-01T05:35:56;0.20;;;0.10;;
13002;SDS011;66869;57.706;11.922;2023-04-01T05:38:21;0.10;;;0.10;;
13002;SDS011;66869;57.706;11.922;2023-04-01T05:40:46;0.20;;;0.20;;
13002;SDS011;66869;57.706;11.922;2023-04-01T05:43:12;0.55;;;0.20;;
13002;SDS011;66869;57.706;11.922;2023-04-01T05:45:37;0.38;;;0.10;;
13002;SDS011;66869;57.706;11.922;2023-04-01T05:48:03;0.10;;;0.10;;
13002;SDS011;66869;57.706;11.922;2023-04-01T05:50:28;0.10;;;0.10;;
13002;SDS011;66869;57.706;11.922;2023-04-01T05:52:53;1.23;;;0.20;;
13002;SDS011;66869;57.706;11.922;2023-04-01T05:55:19;1.77;;;0.20;;
13002;SDS011;66869;57.706;11.922;2023-04-01T05:57:45;0.13;;;0.08;;
13002;SDS011;66869;57.706;11.922;2023-04-01T06:00:11;0.10;;;0.10;;
13002;SDS011;66869;57.706;11.922;2023-04-01T06:02:36;0.17;;;0.17;;
13002;SDS011;66869;57.706;11.922;2023-04-01T06:05:11;0.17;;;0.17;;
13002;SDS011;66869;57.706;11.922;2023-04-01T06:07:36;1.27;;;0.10;;
13002;SDS011;66869;57.706;11.922;2023-04-01T06:10:05;0.10;;;0.10;;
13002;SDS011;66869;57.706;11.922;2023-04-01T06:12:43;0.38;;;0.10;;
13002;SDS011;66869;57.706;11.922;2023-04-01T06:17:58;0.30;;;0.20;;
13002;SDS011;66869;57.706;11.922;2023-04-01T06:30:47;0.17;;;0.17;;
13002;SDS011;66869;57.706;11.922;2023-04-01T06:38:28;0.20;;;0.20;;
13002;SDS011;66869;57.706;11.922;2023-04-01T06:48:58;0.20;;;0.20;;
13002;SDS011;66869;57.706;11.922;2023-04-01T06:51:33;0.10;;;0.10;;
13002;SDS011;66869;57.706;11.922;2023-04-01T06:56:27;1.35;;;0.20;;
13002;SDS011;66869;57.706;11.922;2023-04-01T06:59:27;0.15;;;0.15;;
13002;SDS011;66869;57.706;11.922;2023-04-01T07:04:29;0.10;;;0.10;;
13002;SDS011;66869;57.706;11.922;2023-04-01T07:09:22;0.00;;;0.00;;
13002;SDS011;66869;57.706;11.922;2023-04-01T07:11:49;0.10;;;0.10;;
13002;SDS011;66869;57.706;11.922;2023-04-01T07:14:25;0.10;;;0.10;;
13002;SDS011;66869;57.706;11.922;2023-04-01T07:16:56;0.20;;;0.20;;
13002;SDS011;66869;57.706;11.922;2023-04-01T07:19:31;0.10;;;0.10;;
13002;SDS011;66869;57.706;11.922;2023-04-01T07:24:26;0.10;;;0.10;;
13002;SDS011;66869;57.706;11.922;2023-04-01T07:26:55;0.10;;;0.10;;
13002;SDS011;66869;57.706;11.922;2023-04-01T07:29:21;0.17;;;0.10;;
13002;SDS011;66869;57.706;11.922;2023-04-01T07:36:59;0.10;;;0.10;;
13002;SDS011;66869;57.706;11.922;2023-04-01T07:42:02;0.10;;;0.10;;
13002;SDS011;66869;57.706;11.922;2023-04-01T07:49:42;0.08;;;0.08;;
13002;SDS011;66869;57.706;11.922;2023-04-01T08:05:39;0.30;;;0.10;;
13002;SDS011;66869;57.706;11.922;2023-04-01T08:12:44;0.10;;;0.10;;
13002;SDS011;66869;57.706;11.922;2023-04-01T08:15:13;0.85;;;0.10;;
13002;SDS011;66869;57.706;11.922;2023-04-01T08:20:23;1.85;;;0.20;;
13002;SDS011;66869;57.706;11.922;2023-04-01T08:22:52;1.63;;;0.22;;
13002;SDS011;66869;57.706;11.922;2023-04-01T08:25:21;1.20;;;0.20;;
13002;SDS011;66869;57.706;11.922;2023-04-01T08:27:48;0.50;;;0.30;;
13002;SDS011;66869;57.706;11.922;2023-04-01T08:32:42;4.15;;;0.40;;
13002;SDS011;66869;57.706;11.922;2023-04-01T08:37:41;1.30;;;0.30;;
13002;SDS011;66869;57.706;11.922;2023-04-01T08:40:16;0.40;;;0.10;;
13002;SDS011;66869;57.706;11.922;2023-04-01T08:45:37;3.88;;;0.40;;
13002;SDS011;66869;57.706;11.922;2023-04-01T08:56:06;0.60;;;0.25;;
13002;SDS011;66869;57.706;11.922;2023-04-01T09:02:14;0.15;;;0.15;;
13002;SDS011;66869;57.706;11.922;2023-04-01T09:22:25;1.50;;;0.40;;
13002;SDS011;66869;57.706;11.922;2023-04-01T09:32:40;1.38;;;0.70;;
13002;SDS011;66869;57.706;11.922;2023-04-01T09:48:05;1.30;;;0.63;;
13002;SDS011;66869;57.706;11.922;2023-04-01T09:53:16;1.10;;;0.60;;
13002;SDS011;66869;57.706;11.922;2023-04-01T10:00:56;0.40;;;0.40;;
13002;SDS011;66869;57.706;11.922;2023-04-01T10:09:03;2.28;;;0.43;;
13002;SDS011;66869;57.706;11.922;2023-04-01T10:35:20;0.43;;;0.20;;
13002;SDS011;66869;57.706;11.922;2023-04-01T10:54:20;67.55;;;14.68;;
13002;SDS011;66869;57.706;11.922;2023-04-01T10:59:33;57.25;;;14.55;;
13002;SDS011;66869;57.706;11.922;2023-04-01T11:07:43;29.80;;;7.70;;
13002;SDS011;66869;57.706;11.922;2023-04-01T11:59:31;5.03;;;1.13;;
13002;SDS011;66869;57.706;11.922;2023-04-01T12:02:23;6.63;;;1.20;;
13002;SDS011;66869;57.706;11.922;2023-04-01T12:09:53;3.60;;;0.85;;
13002;SDS011;66869;57.706;11.922;2023-04-01T12:12:24;2.25;;;0.88;;
13002;SDS011;66869;57.706;11.922;2023-04-01T12:20:29;0.80;;;0.50;;
13002;SDS011;66869;57.706;11.922;2023-04-01T12:30:32;1.75;;;0.60;;
13002;SDS011;66869;57.706;11.922;2023-04-01T12:33:43;1.75;;;0.43;;
13002;SDS011;66869;57.706;11.922;2023-04-01T12:40:44;0.90;;;0.40;;
13002;SDS011;66869;57.706;11.922;2023-04-01T12:56:05;0.68;;;0.30;;
13002;SDS011;66869;57.706;11.922;2023-04-01T12:59:11;0.20;;;0.20;;
13002;SDS011;66869;57.706;11.922;2023-04-01T13:01:42;0.45;;;0.30;;
13002;SDS011;66869;57.706;11.922;2023-04-01T13:14:35;0.10;;;0.10;;
13002;SDS011;66869;57.706;11.922;2023-04-01T13:17:41;0.40;;;0.28;;
13002;SDS011;66869;57.706;11.922;2023-04-01T13:22:24;1.50;;;0.30;;
13002;SDS011;66869;57.706;11.922;2023-04-01T13:24:58;0.28;;;0.22;;
13002;SDS011;66869;57.706;11.922;2023-04-01T13:27:30;1.23;;;0.28;;
13002;SDS011;66869;57.706;11.922;2023-04-01T13:35:15;0.75;;;0.20;;
13002;SDS011;66869;57.706;11.922;2023-04-01T13:37:54;0.43;;;0.30;;
13002;SDS011;66869;57.706;11.922;2023-04-01T13:45:20;0.10;;;0.10;;
13002;SDS011;66869;57.706;11.922;2023-04-01T14:02:57;0.38;;;0.13;;
13002;SDS011;66869;57.706;11.922;2023-04-01T14:28:37;0.10;;;0.10;;
13002;SDS011;66869;57.706;11.922;2023-04-01T14:31:15;1.35;;;0.10;;
13002;SDS011;66869;57.706;11.922;2023-04-01T14:39:10;0.35;;;0.20;;
13002;SDS011;66869;57.706;11.922;2023-04-01T14:49:30;1.90;;;0.20;;
13002;SDS011;66869;57.706;11.922;2023-04-01T14:51:57;1.52;;;0.13;;
13002;SDS011;66869;57.706;11.922;2023-04-01T14:54:38;0.10;;;0.10;;
13002;SDS011;66869;57.706;11.922;2023-04-01T14:57:12;1.13;;;0.10;;
13002;SDS011;66869;57.706;11.922;2023-04-01T14:59:39;1.00;;;0.15;;
13002;SDS011;66869;57.706;11.922;2023-04-01T15:12:43;0.10;;;0.10;;
13002;SDS011;66869;57.706;11.922;2023-04-01T15:17:58;1.33;;;0.13;;
13002;SDS011;66869;57.706;11.922;2023-04-01T15:21:05;0.15;;;0.10;;
13002;SDS011;66869;57.706;11.922;2023-04-01T15:26:08;0.95;;;0.10;;
13002;SDS011;66869;57.706;11.922;2023-04-01T15:28:39;0.10;;;0.10;;
13002;SDS011;66869;57.706;11.922;2023-04-01T15:31:10;0.52;;;0.10;;
13002;SDS011;66869;57.706;11.922;2023-04-01T15:33:45;0.32;;;0.10;;
13002;SDS011;66869;57.706;11.922;2023-04-01T15:36:20;0.43;;;0.10;;
13002;SDS011;66869;57.706;11.922;2023-04-01T15:41:27;0.20;;;0.20;;
13002;SDS011;66869;57.706;11.922;2023-04-01T15:43:59;0.00;;;0.00;;
13002;SDS011;66869;57.706;11.922;2023-04-01T15:51:54;0.00;;;0.00;;
13002;SDS011;66869;57.706;11.922;2023-04-01T15:54:32;0.38;;;0.10;;
13002;SDS011;66869;57.706;11.922;2023-04-01T16:07:25;0.38;;;0.20;;
13002;SDS011;66869;57.706;11.922;2023-04-01T16:10:04;0.20;;;0.10;;
13002;SDS011;66869;57.706;11.922;2023-04-01T16:17:31;0.68;;;0.20;;
13002;SDS011;66869;57.706;11.922;2023-04-01T16:20:19;0.77;;;0.20;;
13002;SDS011;66869;57.706;11.922;2023-04-01T16:25:21;0.50;;;0.10;;
13002;SDS011;66869;57.706;11.922;2023-04-01T16:27:58;0.10;;;0.10;;
13002;SDS011;66869;57.706;11.922;2023-04-01T16:30:38;0.30;;;0.10;;
13002;SDS011;66869;57.706;11.922;2023-04-01T16:33:19;0.20;;;0.10;;
13002;SDS011;66869;57.706;11.922;2023-04-01T16:43:37;0.00;;;0.00;;
13002;SDS011;66869;57.706;11.922;2023-04-01T16:51:26;0.30;;;0.10;;
13002;SDS011;66869;57.706;11.922;2023-04-01T16:56:45;0.60;;;0.28;;
13002;SDS011;66869;57.706;11.922;2023-04-01T17:04:43;0.20;;;0.20;;
13002;SDS011;66869;57.706;11.922;2023-04-01T17:07:28;0.40;;;0.30;;
13002;SDS011;66869;57.706;11.922;2023-04-01T17:12:42;3.75;;;2.22;;
13002;SDS011;66869;57.706;11.922;2023-04-01T17:23:09;2.45;;;2.25;;
13002;SDS011;66869;57.706;11.922;2023-04-01T17:28:08;3.08;;;1.90;;
13002;SDS011;66869;57.706;11.922;2023-04-01T17:33:57;2.03;;;1.67;;
13002;SDS011;66869;57.706;11.922;2023-04-01T17:35:58;2.05;;;1.48;;
13002;SDS011;66869;57.706;11.922;2023-04-01T17:38:32;1.67;;;1.50;;
13002;SDS011;66869;57.706;11.922;2023-04-01T17:43:51;1.55;;;1.25;;
13002;SDS011;66869;57.706;11.922;2023-04-01T17:46:29;1.50;;;1.30;;
13002;SDS011;66869;57.706;11.922;2023-04-01T17:49:14;1.10;;;1.00;;
13002;SDS011;66869;57.706;11.922;2023-04-01T17:51:43;1.70;;;1.13;;
13002;SDS011;66869;57.706;11.922;2023-04-01T17:59:43;0.88;;;0.88;;
13002;SDS011;66869;57.706;11.922;2023-04-01T18:18:43;2.75;;;0.50;;
13002;SDS011;66869;57.706;11.922;2023-04-01T18:21:19;4.13;;;0.57;;
13002;SDS011;66869;57.706;11.922;2023-04-01T18:26:59;0.63;;;0.55;;
13002;SDS011;66869;57.706;11.922;2023-04-01T18:31:41;1.85;;;0.50;;
13002;SDS011;66869;57.706;11.922;2023-04-01T18:34:30;0.95;;;0.50;;
13002;SDS011;66869;57.706;11.922;2023-04-01T18:37:12;0.60;;;0.50;;
13002;SDS011;66869;57.706;11.922;2023-04-01T18:39:41;2.38;;;0.40;;
13002;SDS011;66869;57.706;11.922;2023-04-01T18:42:19;0.57;;;0.30;;
13002;SDS011;66869;57.706;11.922;2023-04-01T18:44:50;0.55;;;0.40;;
13002;SDS011;66869;57.706;11.922;2023-04-01T18:52:36;0.50;;;0.40;;
13002;SDS011;66869;57.706;11.922;2023-04-01T18:57:49;1.85;;;0.40;;
13002;SDS011;66869;57.706;11.922;2023-04-01T19:02:54;0.90;;;0.30;;
13002;SDS011;66869;57.706;11.922;2023-04-01T19:05:23;0.80;;;0.22;;
13002;SDS011;66869;57.706;11.922;2023-04-01T19:07:52;0.57;;;0.40;;
13002;SDS011;66869;57.706;11.922;2023-04-01T19:25:51;0.25;;;0.25;;
13002;SDS011;66869;57.706;11.922;2023-04-01T19:35:52;1.50;;;0.50;;
13002;SDS011;66869;57.706;11.922;2023-04-01T19:38:25;2.53;;;0.20;;
13002;SDS011;66869;57.706;11.922;2023-04-01T19:40:58;0.30;;;0.20;;
13002;SDS011;66869;57.706;11.922;2023-04-01T19:43:33;0.35;;;0.30;;
13002;SDS011;66869;57.706;11.922;2023-04-01T19:50:59;0.47;;;0.30;;
13002;SDS011;66869;57.706;11.922;2023-04-01T19:56:15;0.20;;;0.20;;
13002;SDS011;66869;57.706;11.922;2023-04-01T19:58:45;0.57;;;0.20;;
13002;SDS011;66869;57.706;11.922;2023-04-01T20:01:17;1.92;;;0.30;;
13002;SDS011;66869;57.706;11.922;2023-04-01T20:14:18;0.50;;;0.20;;
13002;SDS011;66869;57.706;11.922;2023-04-01T20:16:49;0.20;;;0.20;;
13002;SDS011;66869;57.706;11.922;2023-04-01T20:19:20;0.32;;;0.20;;
13002;SDS011;66869;57.706;11.922;2023-04-01T20:21:49;0.13;;;0.13;;
13002;SDS011;66869;57.706;11.922;2023-04-01T20:29:41;0.20;;;0.20;;
13002;SDS011;66869;57.706;11.922;2023-04-01T20:32:11;0.20;;;0.20;;
13002;SDS011;66869;57.706;11.922;2023-04-01T20:34:57;0.50;;;0.20;;
13002;SDS011;66869;57.706;11.922;2023-04-01T20:40:29;0.20;;;0.20;;
13002;SDS011;66869;57.706;11.922;2023-04-01T20:53:14;1.38;;;0.22;;
13002;SDS011;66869;57.706;11.922;2023-04-01T21:03:22;0.20;;;0.20;;
13002;SDS011;66869;57.706;11.922;2023-04-01T21:06:08;0.20;;;0.20;;
13002;SDS011;66869;57.706;11.922;2023-04-01T21:08:53;0.57;;;0.30;;
13002;SDS011;66869;57.706;11.922;2023-04-01T21:16:44;0.13;;;0.13;;
13002;SDS011;66869;57.706;11.922;2023-04-01T21:39:51;1.38;;;0.20;;
13002;SDS011;66869;57.706;11.922;2023-04-01T21:45:12;0.30;;;0.30;;
13002;SDS011;66869;57.706;11.922;2023-04-01T22:11:12;0.25;;;0.25;;
13002;SDS011;66869;57.706;11.922;2023-04-01T22:18:44;0.20;;;0.20;;
13002;SDS011;66869;57.706;11.922;2023-04-01T22:23:39;0.20;;;0.20;;
13002;SDS011;66869;57.706;11.922;2023-04-01T22:31:14;1.98;;;0.20;;
13002;SDS011;66869;57.706;11.922;2023-04-01T22:41:41;0.17;;;0.15;;
13002;SDS011;66869;57.706;11.922;2023-04-01T22:46:56;0.43;;;0.40;;
13002;SDS011;66869;57.706;11.922;2023-04-01T22:49:27;0.30;;;0.30;;
13002;SDS011;66869;57.706;11.922;2023-04-01T22:56:52;0.35;;;0.20;;
13002;SDS011;66869;57.706;11.922;2023-04-01T23:01:54;0.37;;;0.37;;
13002;SDS011;66869;57.706;11.922;2023-04-01T23:04:24;0.20;;;0.20;;
13002;SDS011;66869;57.706;11.922;2023-04-01T23:06:56;0.25;;;0.25;;
13002;SDS011;66869;57.706;11.922;2023-04-01T23:09:26;0.40;;;0.40;;
13002;SDS011;66869;57.706;11.922;2023-04-01T23:11:57;0.60;;;0.30;;
13002;SDS011;66869;57.706;11.922;2023-04-01T23:22:16;0.30;;;0.20;;
13002;SDS011;66869;57.706;11.922;2023-04-01T23:27:39;0.63;;;0.30;;
13002;SDS011;66869;57.706;11.922;2023-04-01T23:32:53;0.88;;;0.32;;
13002;SDS011;66869;57.706;11.922;2023-04-01T23:35:18;0.22;;;0.20;;
13002;SDS011;66869;57.706;11.922;2023-04-01T23:37:43;0.60;;;0.50;;
13002;SDS011;66869;57.706;11.922;2023-04-01T23:40:11;0.40;;;0.40;;
13002;SDS011;66869;57.706;11.922;2023-04-01T23:42:40;0.55;;;0.45;;
13002;SDS011;66869;57.706;11.922;2023-04-01T23:45:13;0.57;;;0.52;;
13002;SDS011;66869;57.706;11.922;2023-04-01T23:47:42;1.10;;;0.50;;
13002;SDS011;66869;57.706;11.922;2023-04-01T23:50:14;0.50;;;0.40;;
13002;SDS011;66869;57.706;11.922;2023-04-01T23:53:24;0.50;;;0.50;;
13002;SDS011;66869;57.706;11.922;2023-04-01T23:55:31;0.65;;;0.45;;
